sensor_id;sensor_type;location;lat;lon;timestamp;P1;durP1;ratioP1;P2;durP2;ratioP2
69534;SDS011;56754;51.568;5.048;2023-07-31T00:01:03;9.07;;;3.30;;
69534;SDS011;56754;51.568;5.048;2023-07-31T00:03:28;10.13;;;3.30;;
69534;SDS011;56754;51.568;5.048;2023-07-31T00:05:54;9.47;;;3.30;;
69534;SDS011;56754;51.568;5.048;2023-07-31T00:08:19;9.17;;;3.40;;
69534;SDS011;56754;51.568;5.048;2023-07-31T00:10:44;12.20;;;3.20;;
69534;SDS011;56754;51.568;5.048;2023-07-31T00:13:09;11.27;;;3.50;;
69534;SDS011;56754;51.568;5.048;2023-07-31T00:15:35;8.38;;;2.95;;
69534;SDS011;56754;51.568;5.048;2023-07-31T00:18:00;10.00;;;3.47;;
69534;SDS011;56754;51.568;5.048;2023-07-31T00:20:25;10.97;;;3.27;;
69534;SDS011;56754;51.568;5.048;2023-07-31T00:22:51;9.77;;;3.37;;
69534;SDS011;56754;51.568;5.048;2023-07-31T00:25:16;10.03;;;3.43;;
69534;SDS011;56754;51.568;5.048;2023-07-31T00:27:41;10.40;;;3.27;;
69534;SDS011;56754;51.568;5.048;2023-07-31T00:30:07;11.20;;;3.17;;
69534;SDS011;56754;51.568;5.048;2023-07-31T00:32:32;8.85;;;2.92;;
69534;SDS011;56754;51.568;5.048;2023-07-31T00:34:57;8.67;;;3.13;;
69534;SDS011;56754;51.568;5.048;2023-07-31T00:37:23;10.53;;;3.40;;
69534;SDS011;56754;51.568;5.048;2023-07-31T00:39:49;9.93;;;3.30;;
69534;SDS011;56754;51.568;5.048;2023-07-31T00:42:14;8.88;;;3.55;;
69534;SDS011;56754;51.568;5.048;2023-07-31T00:44:39;12.13;;;3.37;;
69534;SDS011;56754;51.568;5.048;2023-07-31T00:47:05;11.77;;;3.67;;
69534;SDS011;56754;51.568;5.048;2023-07-31T00:49:30;7.90;;;3.03;;
69534;SDS011;56754;51.568;5.048;2023-07-31T00:51:56;8.40;;;3.23;;
69534;SDS011;56754;51.568;5.048;2023-07-31T00:54:21;8.60;;;3.03;;
69534;SDS011;56754;51.568;5.048;2023-07-31T00:56:46;11.47;;;3.50;;
69534;SDS011;56754;51.568;5.048;2023-07-31T00:59:12;9.30;;;3.03;;
69534;SDS011;56754;51.568;5.048;2023-07-31T01:01:37;10.10;;;3.20;;
69534;SDS011;56754;51.568;5.048;2023-07-31T01:04:03;9.65;;;3.10;;
69534;SDS011;56754;51.568;5.048;2023-07-31T01:06:46;9.82;;;3.58;;
69534;SDS011;56754;51.568;5.048;2023-07-31T01:11:52;7.72;;;3.10;;
69534;SDS011;56754;51.568;5.048;2023-07-31T01:14:21;11.05;;;3.60;;
69534;SDS011;56754;51.568;5.048;2023-07-31T01:16:46;8.33;;;3.37;;
69534;SDS011;56754;51.568;5.048;2023-07-31T01:19:11;9.27;;;3.33;;
69534;SDS011;56754;51.568;5.048;2023-07-31T01:26:42;9.35;;;3.10;;
69534;SDS011;56754;51.568;5.048;2023-07-31T01:32:28;11.30;;;3.10;;
69534;SDS011;56754;51.568;5.048;2023-07-31T01:34:54;10.02;;;3.10;;
69534;SDS011;56754;51.568;5.048;2023-07-31T01:37:20;10.95;;;3.00;;
69534;SDS011;56754;51.568;5.048;2023-07-31T01:39:46;8.97;;;3.00;;
69534;SDS011;56754;51.568;5.048;2023-07-31T01:42:11;10.60;;;3.80;;
69534;SDS011;56754;51.568;5.048;2023-07-31T01:44:36;9.93;;;3.57;;
69534;SDS011;56754;51.568;5.048;2023-07-31T01:47:01;12.87;;;3.27;;
69534;SDS011;56754;51.568;5.048;2023-07-31T01:49:27;10.23;;;3.30;;
69534;SDS011;56754;51.568;5.048;2023-07-31T01:51:52;8.70;;;3.20;;
69534;SDS011;56754;51.568;5.048;2023-07-31T01:54:17;10.50;;;3.90;;
69534;SDS011;56754;51.568;5.048;2023-07-31T01:56:43;11.00;;;3.23;;
69534;SDS011;56754;51.568;5.048;2023-07-31T01:59:08;10.03;;;3.47;;
69534;SDS011;56754;51.568;5.048;2023-07-31T02:01:33;10.00;;;3.27;;
69534;SDS011;56754;51.568;5.048;2023-07-31T02:03:58;9.60;;;3.60;;
69534;SDS011;56754;51.568;5.048;2023-07-31T02:06:24;12.52;;;3.58;;
69534;SDS011;56754;51.568;5.048;2023-07-31T02:08:49;11.53;;;3.57;;
69534;SDS011;56754;51.568;5.048;2023-07-31T02:11:14;11.97;;;3.60;;
69534;SDS011;56754;51.568;5.048;2023-07-31T02:13:40;11.47;;;3.43;;
69534;SDS011;56754;51.568;5.048;2023-07-31T02:16:05;10.10;;;3.70;;
69534;SDS011;56754;51.568;5.048;2023-07-31T02:18:30;12.60;;;3.70;;
69534;SDS011;56754;51.568;5.048;2023-07-31T02:20:55;11.33;;;3.83;;
69534;SDS011;56754;51.568;5.048;2023-07-31T02:23:21;8.77;;;3.17;;
69534;SDS011;56754;51.568;5.048;2023-07-31T02:25:46;11.90;;;3.57;;
69534;SDS011;56754;51.568;5.048;2023-07-31T02:28:12;8.25;;;3.17;;
69534;SDS011;56754;51.568;5.048;2023-07-31T02:30:37;12.63;;;3.30;;
69534;SDS011;56754;51.568;5.048;2023-07-31T02:33:03;12.03;;;3.37;;
69534;SDS011;56754;51.568;5.048;2023-07-31T02:35:29;11.88;;;3.70;;
69534;SDS011;56754;51.568;5.048;2023-07-31T02:37:54;10.97;;;3.50;;
69534;SDS011;56754;51.568;5.048;2023-07-31T02:40:19;8.97;;;3.60;;
69534;SDS011;56754;51.568;5.048;2023-07-31T02:42:45;9.67;;;3.60;;
69534;SDS011;56754;51.568;5.048;2023-07-31T02:45:10;9.33;;;2.93;;
69534;SDS011;56754;51.568;5.048;2023-07-31T02:47:35;10.57;;;3.47;;
69534;SDS011;56754;51.568;5.048;2023-07-31T02:50:04;12.87;;;3.67;;
69534;SDS011;56754;51.568;5.048;2023-07-31T02:52:29;10.27;;;3.60;;
69534;SDS011;56754;51.568;5.048;2023-07-31T02:54:55;9.60;;;3.63;;
69534;SDS011;56754;51.568;5.048;2023-07-31T02:57:20;13.17;;;3.90;;
69534;SDS011;56754;51.568;5.048;2023-07-31T02:59:46;12.27;;;3.30;;
69534;SDS011;56754;51.568;5.048;2023-07-31T03:02:11;10.63;;;3.45;;
69534;SDS011;56754;51.568;5.048;2023-07-31T03:04:36;11.40;;;3.50;;
69534;SDS011;56754;51.568;5.048;2023-07-31T03:07:01;13.37;;;3.90;;
69534;SDS011;56754;51.568;5.048;2023-07-31T03:09:27;12.27;;;3.60;;
69534;SDS011;56754;51.568;5.048;2023-07-31T03:11:52;10.80;;;3.37;;
69534;SDS011;56754;51.568;5.048;2023-07-31T03:14:17;8.27;;;3.23;;
69534;SDS011;56754;51.568;5.048;2023-07-31T03:16:42;8.67;;;3.10;;
69534;SDS011;56754;51.568;5.048;2023-07-31T03:19:08;12.33;;;3.57;;
69534;SDS011;56754;51.568;5.048;2023-07-31T03:21:33;8.40;;;3.40;;
69534;SDS011;56754;51.568;5.048;2023-07-31T03:23:58;10.67;;;3.63;;
69534;SDS011;56754;51.568;5.048;2023-07-31T03:26:23;9.63;;;3.53;;
69534;SDS011;56754;51.568;5.048;2023-07-31T03:28:49;9.00;;;3.57;;
69534;SDS011;56754;51.568;5.048;2023-07-31T03:31:14;9.23;;;3.37;;
69534;SDS011;56754;51.568;5.048;2023-07-31T03:33:39;10.40;;;3.40;;
69534;SDS011;56754;51.568;5.048;2023-07-31T03:36:05;8.00;;;3.10;;
69534;SDS011;56754;51.568;5.048;2023-07-31T03:38:30;9.00;;;3.30;;
69534;SDS011;56754;51.568;5.048;2023-07-31T03:40:55;10.13;;;3.23;;
69534;SDS011;56754;51.568;5.048;2023-07-31T03:43:20;8.50;;;3.10;;
69534;SDS011;56754;51.568;5.048;2023-07-31T03:45:46;10.00;;;3.43;;
69534;SDS011;56754;51.568;5.048;2023-07-31T03:48:11;10.07;;;3.40;;
69534;SDS011;56754;51.568;5.048;2023-07-31T03:50:38;9.52;;;3.33;;
69534;SDS011;56754;51.568;5.048;2023-07-31T03:53:04;9.67;;;3.20;;
69534;SDS011;56754;51.568;5.048;2023-07-31T03:55:29;9.20;;;3.03;;
69534;SDS011;56754;51.568;5.048;2023-07-31T03:57:54;9.97;;;3.37;;
69534;SDS011;56754;51.568;5.048;2023-07-31T04:00:19;9.00;;;3.00;;
69534;SDS011;56754;51.568;5.048;2023-07-31T04:02:45;13.37;;;3.80;;
69534;SDS011;56754;51.568;5.048;2023-07-31T04:05:10;8.40;;;3.13;;
69534;SDS011;56754;51.568;5.048;2023-07-31T04:07:35;11.37;;;3.47;;
69534;SDS011;56754;51.568;5.048;2023-07-31T04:10:01;10.10;;;3.67;;
69534;SDS011;56754;51.568;5.048;2023-07-31T04:12:28;10.88;;;3.80;;
69534;SDS011;56754;51.568;5.048;2023-07-31T04:14:53;10.63;;;3.40;;
69534;SDS011;56754;51.568;5.048;2023-07-31T04:17:19;9.43;;;3.30;;
69534;SDS011;56754;51.568;5.048;2023-07-31T04:19:44;10.77;;;3.60;;
69534;SDS011;56754;51.568;5.048;2023-07-31T04:22:09;10.00;;;3.37;;
69534;SDS011;56754;51.568;5.048;2023-07-31T04:24:34;9.00;;;3.23;;
69534;SDS011;56754;51.568;5.048;2023-07-31T04:27:00;7.60;;;2.80;;
69534;SDS011;56754;51.568;5.048;2023-07-31T04:29:25;7.90;;;3.17;;
69534;SDS011;56754;51.568;5.048;2023-07-31T04:31:50;9.67;;;3.30;;
69534;SDS011;56754;51.568;5.048;2023-07-31T04:34:16;7.80;;;3.13;;
69534;SDS011;56754;51.568;5.048;2023-07-31T04:36:41;7.57;;;2.87;;
69534;SDS011;56754;51.568;5.048;2023-07-31T04:39:06;10.80;;;3.13;;
69534;SDS011;56754;51.568;5.048;2023-07-31T04:41:31;8.87;;;2.67;;
69534;SDS011;56754;51.568;5.048;2023-07-31T04:43:57;8.33;;;3.10;;
69534;SDS011;56754;51.568;5.048;2023-07-31T04:46:22;8.10;;;3.23;;
69534;SDS011;56754;51.568;5.048;2023-07-31T04:48:47;7.80;;;2.80;;
69534;SDS011;56754;51.568;5.048;2023-07-31T04:51:13;10.40;;;3.50;;
69534;SDS011;56754;51.568;5.048;2023-07-31T04:53:38;9.70;;;3.28;;
69534;SDS011;56754;51.568;5.048;2023-07-31T04:56:03;9.07;;;2.93;;
69534;SDS011;56754;51.568;5.048;2023-07-31T04:58:28;11.23;;;3.50;;
69534;SDS011;56754;51.568;5.048;2023-07-31T05:00:54;9.37;;;3.30;;
69534;SDS011;56754;51.568;5.048;2023-07-31T05:03:19;8.37;;;2.70;;
69534;SDS011;56754;51.568;5.048;2023-07-31T05:05:44;9.80;;;3.00;;
69534;SDS011;56754;51.568;5.048;2023-07-31T05:08:09;7.70;;;2.83;;
69534;SDS011;56754;51.568;5.048;2023-07-31T05:10:35;8.77;;;2.87;;
69534;SDS011;56754;51.568;5.048;2023-07-31T05:13:00;8.80;;;3.30;;
69534;SDS011;56754;51.568;5.048;2023-07-31T05:15:25;8.95;;;2.70;;
69534;SDS011;56754;51.568;5.048;2023-07-31T05:17:51;9.17;;;2.80;;
69534;SDS011;56754;51.568;5.048;2023-07-31T05:20:16;7.17;;;2.37;;
69534;SDS011;56754;51.568;5.048;2023-07-31T05:22:41;9.83;;;2.90;;
69534;SDS011;56754;51.568;5.048;2023-07-31T05:25:07;9.53;;;3.00;;
69534;SDS011;56754;51.568;5.048;2023-07-31T05:27:32;8.93;;;2.78;;
69534;SDS011;56754;51.568;5.048;2023-07-31T05:29:58;9.80;;;2.83;;
69534;SDS011;56754;51.568;5.048;2023-07-31T05:32:23;9.33;;;3.00;;
69534;SDS011;56754;51.568;5.048;2023-07-31T05:34:50;8.27;;;3.10;;
69534;SDS011;56754;51.568;5.048;2023-07-31T05:37:16;7.57;;;2.90;;
69534;SDS011;56754;51.568;5.048;2023-07-31T05:39:42;7.87;;;2.70;;
69534;SDS011;56754;51.568;5.048;2023-07-31T05:42:07;6.63;;;2.80;;
69534;SDS011;56754;51.568;5.048;2023-07-31T05:44:32;9.10;;;2.90;;
69534;SDS011;56754;51.568;5.048;2023-07-31T05:46:57;6.07;;;2.40;;
69534;SDS011;56754;51.568;5.048;2023-07-31T05:49:23;8.00;;;2.70;;
69534;SDS011;56754;51.568;5.048;2023-07-31T05:51:48;6.17;;;2.60;;
69534;SDS011;56754;51.568;5.048;2023-07-31T05:54:13;7.03;;;2.70;;
69534;SDS011;56754;51.568;5.048;2023-07-31T05:56:38;7.13;;;2.57;;
69534;SDS011;56754;51.568;5.048;2023-07-31T05:59:04;7.90;;;2.67;;
69534;SDS011;56754;51.568;5.048;2023-07-31T06:01:29;6.87;;;2.50;;
69534;SDS011;56754;51.568;5.048;2023-07-31T06:03:54;6.70;;;2.10;;
69534;SDS011;56754;51.568;5.048;2023-07-31T06:06:20;8.37;;;2.63;;
69534;SDS011;56754;51.568;5.048;2023-07-31T06:08:45;8.17;;;2.70;;
69534;SDS011;56754;51.568;5.048;2023-07-31T06:11:11;7.05;;;2.38;;
69534;SDS011;56754;51.568;5.048;2023-07-31T06:13:36;6.03;;;2.10;;
69534;SDS011;56754;51.568;5.048;2023-07-31T06:16:02;6.00;;;2.50;;
69534;SDS011;56754;51.568;5.048;2023-07-31T06:18:27;6.22;;;2.10;;
69534;SDS011;56754;51.568;5.048;2023-07-31T06:20:52;6.47;;;1.93;;
69534;SDS011;56754;51.568;5.048;2023-07-31T06:23:18;5.87;;;2.20;;
69534;SDS011;56754;51.568;5.048;2023-07-31T06:25:43;5.33;;;1.83;;
69534;SDS011;56754;51.568;5.048;2023-07-31T06:28:08;4.63;;;1.77;;
69534;SDS011;56754;51.568;5.048;2023-07-31T06:30:34;5.68;;;1.40;;
69534;SDS011;56754;51.568;5.048;2023-07-31T06:32:59;5.57;;;1.70;;
69534;SDS011;56754;51.568;5.048;2023-07-31T06:35:24;5.10;;;1.50;;
69534;SDS011;56754;51.568;5.048;2023-07-31T06:37:49;4.33;;;1.60;;
69534;SDS011;56754;51.568;5.048;2023-07-31T06:40:15;4.40;;;1.40;;
69534;SDS011;56754;51.568;5.048;2023-07-31T06:42:40;5.30;;;1.50;;
69534;SDS011;56754;51.568;5.048;2023-07-31T06:45:05;4.27;;;1.60;;
69534;SDS011;56754;51.568;5.048;2023-07-31T06:47:31;5.38;;;1.73;;
69534;SDS011;56754;51.568;5.048;2023-07-31T06:49:57;4.30;;;1.37;;
69534;SDS011;56754;51.568;5.048;2023-07-31T06:52:22;4.80;;;1.70;;
69534;SDS011;56754;51.568;5.048;2023-07-31T06:55:03;4.30;;;1.37;;
69534;SDS011;56754;51.568;5.048;2023-07-31T06:57:41;3.60;;;1.38;;
69534;SDS011;56754;51.568;5.048;2023-07-31T07:00:07;6.27;;;1.70;;
69534;SDS011;56754;51.568;5.048;2023-07-31T07:02:32;4.22;;;1.58;;
69534;SDS011;56754;51.568;5.048;2023-07-31T07:04:58;5.40;;;1.63;;
69534;SDS011;56754;51.568;5.048;2023-07-31T07:07:23;4.50;;;1.43;;
69534;SDS011;56754;51.568;5.048;2023-07-31T07:09:48;4.47;;;1.30;;
69534;SDS011;56754;51.568;5.048;2023-07-31T07:12:13;4.15;;;1.40;;
69534;SDS011;56754;51.568;5.048;2023-07-31T07:14:39;3.87;;;1.30;;
69534;SDS011;56754;51.568;5.048;2023-07-31T07:17:04;3.60;;;1.17;;
69534;SDS011;56754;51.568;5.048;2023-07-31T07:19:30;3.40;;;1.10;;
69534;SDS011;56754;51.568;5.048;2023-07-31T07:21:55;5.13;;;1.40;;
69534;SDS011;56754;51.568;5.048;2023-07-31T07:24:20;5.20;;;1.60;;
69534;SDS011;56754;51.568;5.048;2023-07-31T07:26:45;5.07;;;1.50;;
69534;SDS011;56754;51.568;5.048;2023-07-31T07:29:11;4.63;;;1.43;;
69534;SDS011;56754;51.568;5.048;2023-07-31T07:31:36;3.47;;;1.30;;
69534;SDS011;56754;51.568;5.048;2023-07-31T07:34:01;4.00;;;1.50;;
69534;SDS011;56754;51.568;5.048;2023-07-31T07:36:27;4.10;;;1.70;;
69534;SDS011;56754;51.568;5.048;2023-07-31T07:38:53;4.40;;;1.50;;
69534;SDS011;56754;51.568;5.048;2023-07-31T07:41:18;4.67;;;1.47;;
69534;SDS011;56754;51.568;5.048;2023-07-31T07:43:43;4.73;;;1.73;;
69534;SDS011;56754;51.568;5.048;2023-07-31T07:46:08;4.23;;;1.57;;
69534;SDS011;56754;51.568;5.048;2023-07-31T07:48:34;5.03;;;1.70;;
69534;SDS011;56754;51.568;5.048;2023-07-31T07:50:59;5.63;;;1.77;;
69534;SDS011;56754;51.568;5.048;2023-07-31T07:53:24;4.07;;;1.70;;
69534;SDS011;56754;51.568;5.048;2023-07-31T07:55:49;4.72;;;1.80;;
69534;SDS011;56754;51.568;5.048;2023-07-31T07:58:15;4.13;;;1.67;;
69534;SDS011;56754;51.568;5.048;2023-07-31T08:00:40;4.77;;;1.97;;
69534;SDS011;56754;51.568;5.048;2023-07-31T08:03:05;5.00;;;1.60;;
69534;SDS011;56754;51.568;5.048;2023-07-31T08:05:31;4.37;;;1.90;;
69534;SDS011;56754;51.568;5.048;2023-07-31T08:07:56;5.70;;;1.80;;
69534;SDS011;56754;51.568;5.048;2023-07-31T08:10:21;4.07;;;1.77;;
69534;SDS011;56754;51.568;5.048;2023-07-31T08:12:46;4.33;;;1.70;;
69534;SDS011;56754;51.568;5.048;2023-07-31T08:15:12;5.10;;;1.70;;
69534;SDS011;56754;51.568;5.048;2023-07-31T08:17:37;4.65;;;1.70;;
69534;SDS011;56754;51.568;5.048;2023-07-31T08:20:04;4.83;;;1.90;;
69534;SDS011;56754;51.568;5.048;2023-07-31T08:22:29;4.78;;;2.08;;
69534;SDS011;56754;51.568;5.048;2023-07-31T08:24:55;6.03;;;2.13;;
69534;SDS011;56754;51.568;5.048;2023-07-31T08:27:20;4.40;;;1.60;;
69534;SDS011;56754;51.568;5.048;2023-07-31T08:29:45;4.50;;;1.80;;
69534;SDS011;56754;51.568;5.048;2023-07-31T08:32:10;6.10;;;2.20;;
69534;SDS011;56754;51.568;5.048;2023-07-31T08:34:36;5.20;;;2.00;;
69534;SDS011;56754;51.568;5.048;2023-07-31T08:37:01;4.23;;;2.07;;
69534;SDS011;56754;51.568;5.048;2023-07-31T08:39:26;5.47;;;2.00;;
69534;SDS011;56754;51.568;5.048;2023-07-31T08:41:57;5.30;;;1.90;;
69534;SDS011;56754;51.568;5.048;2023-07-31T08:44:23;4.95;;;2.20;;
69534;SDS011;56754;51.568;5.048;2023-07-31T08:46:48;6.43;;;2.50;;
69534;SDS011;56754;51.568;5.048;2023-07-31T08:49:14;6.22;;;2.50;;
69534;SDS011;56754;51.568;5.048;2023-07-31T08:51:40;5.60;;;2.17;;
69534;SDS011;56754;51.568;5.048;2023-07-31T08:54:06;5.50;;;2.13;;
69534;SDS011;56754;51.568;5.048;2023-07-31T08:56:32;5.95;;;2.17;;
69534;SDS011;56754;51.568;5.048;2023-07-31T08:58:59;6.87;;;2.60;;
69534;SDS011;56754;51.568;5.048;2023-07-31T09:01:27;5.90;;;2.22;;
69534;SDS011;56754;51.568;5.048;2023-07-31T09:03:54;5.90;;;2.30;;
69534;SDS011;56754;51.568;5.048;2023-07-31T09:06:21;6.03;;;2.40;;
69534;SDS011;56754;51.568;5.048;2023-07-31T09:08:48;6.38;;;2.40;;
69534;SDS011;56754;51.568;5.048;2023-07-31T09:11:14;5.87;;;2.10;;
69534;SDS011;56754;51.568;5.048;2023-07-31T09:13:40;6.30;;;2.27;;
69534;SDS011;56754;51.568;5.048;2023-07-31T09:16:05;5.50;;;2.13;;
69534;SDS011;56754;51.568;5.048;2023-07-31T09:18:31;5.40;;;2.30;;
69534;SDS011;56754;51.568;5.048;2023-07-31T09:21:05;6.03;;;2.03;;
69534;SDS011;56754;51.568;5.048;2023-07-31T09:23:41;5.72;;;2.17;;
69534;SDS011;56754;51.568;5.048;2023-07-31T09:26:06;6.95;;;2.20;;
69534;SDS011;56754;51.568;5.048;2023-07-31T09:28:32;6.60;;;2.60;;
69534;SDS011;56754;51.568;5.048;2023-07-31T09:30:57;4.47;;;2.07;;
69534;SDS011;56754;51.568;5.048;2023-07-31T09:33:22;5.13;;;1.90;;
69534;SDS011;56754;51.568;5.048;2023-07-31T09:35:47;5.07;;;1.87;;
69534;SDS011;56754;51.568;5.048;2023-07-31T09:38:13;6.63;;;2.30;;
69534;SDS011;56754;51.568;5.048;2023-07-31T09:40:40;5.05;;;1.98;;
69534;SDS011;56754;51.568;5.048;2023-07-31T09:43:08;7.30;;;2.45;;
69534;SDS011;56754;51.568;5.048;2023-07-31T09:45:37;5.20;;;2.40;;
69534;SDS011;56754;51.568;5.048;2023-07-31T09:48:14;5.80;;;2.20;;
69534;SDS011;56754;51.568;5.048;2023-07-31T09:50:41;4.27;;;1.73;;
69534;SDS011;56754;51.568;5.048;2023-07-31T09:53:07;6.90;;;2.22;;
69534;SDS011;56754;51.568;5.048;2023-07-31T09:55:34;6.65;;;2.03;;
69534;SDS011;56754;51.568;5.048;2023-07-31T09:58:02;5.07;;;1.83;;
69534;SDS011;56754;51.568;5.048;2023-07-31T10:00:29;6.28;;;1.90;;
69534;SDS011;56754;51.568;5.048;2023-07-31T10:02:57;5.77;;;1.70;;
69534;SDS011;56754;51.568;5.048;2023-07-31T10:05:24;7.00;;;2.10;;
69534;SDS011;56754;51.568;5.048;2023-07-31T10:07:58;5.60;;;1.98;;
69534;SDS011;56754;51.568;5.048;2023-07-31T10:10:23;5.40;;;2.00;;
69534;SDS011;56754;51.568;5.048;2023-07-31T10:12:50;5.13;;;2.00;;
69534;SDS011;56754;51.568;5.048;2023-07-31T10:15:17;7.15;;;1.80;;
69534;SDS011;56754;51.568;5.048;2023-07-31T10:17:42;6.57;;;2.23;;
69534;SDS011;56754;51.568;5.048;2023-07-31T10:20:08;4.53;;;1.70;;
69534;SDS011;56754;51.568;5.048;2023-07-31T10:22:34;5.20;;;2.05;;
69534;SDS011;56754;51.568;5.048;2023-07-31T10:25:00;4.30;;;1.73;;
69534;SDS011;56754;51.568;5.048;2023-07-31T10:27:26;5.07;;;1.57;;
69534;SDS011;56754;51.568;5.048;2023-07-31T10:29:52;5.57;;;2.10;;
69534;SDS011;56754;51.568;5.048;2023-07-31T10:32:20;5.27;;;1.90;;
69534;SDS011;56754;51.568;5.048;2023-07-31T10:34:46;5.32;;;1.75;;
69534;SDS011;56754;51.568;5.048;2023-07-31T10:37:20;4.15;;;1.80;;
69534;SDS011;56754;51.568;5.048;2023-07-31T10:40:02;4.25;;;1.58;;
69534;SDS011;56754;51.568;5.048;2023-07-31T10:42:37;5.18;;;2.00;;
69534;SDS011;56754;51.568;5.048;2023-07-31T10:45:13;5.53;;;2.10;;
69534;SDS011;56754;51.568;5.048;2023-07-31T10:47:48;4.75;;;1.80;;
69534;SDS011;56754;51.568;5.048;2023-07-31T10:50:20;5.60;;;1.93;;
69534;SDS011;56754;51.568;5.048;2023-07-31T10:52:47;5.10;;;2.15;;
69534;SDS011;56754;51.568;5.048;2023-07-31T10:56:00;6.97;;;2.20;;
69534;SDS011;56754;51.568;5.048;2023-07-31T11:00:32;8.60;;;1.93;;
69534;SDS011;56754;51.568;5.048;2023-07-31T11:03:04;5.57;;;1.80;;
69534;SDS011;56754;51.568;5.048;2023-07-31T11:10:50;5.37;;;2.07;;
69534;SDS011;56754;51.568;5.048;2023-07-31T11:13:29;5.90;;;2.03;;
69534;SDS011;56754;51.568;5.048;2023-07-31T11:15:55;5.00;;;1.80;;
69534;SDS011;56754;51.568;5.048;2023-07-31T11:18:21;4.40;;;1.90;;
69534;SDS011;56754;51.568;5.048;2023-07-31T11:20:46;5.80;;;2.10;;
69534;SDS011;56754;51.568;5.048;2023-07-31T11:23:12;6.63;;;1.93;;
69534;SDS011;56754;51.568;5.048;2023-07-31T11:25:38;5.57;;;2.05;;
69534;SDS011;56754;51.568;5.048;2023-07-31T11:30:30;6.05;;;2.22;;
69534;SDS011;56754;51.568;5.048;2023-07-31T11:32:56;7.27;;;2.10;;
69534;SDS011;56754;51.568;5.048;2023-07-31T11:35:21;4.88;;;2.10;;
69534;SDS011;56754;51.568;5.048;2023-07-31T11:37:46;5.83;;;2.00;;
69534;SDS011;56754;51.568;5.048;2023-07-31T11:40:12;4.47;;;2.20;;
69534;SDS011;56754;51.568;5.048;2023-07-31T11:42:37;4.73;;;2.23;;
69534;SDS011;56754;51.568;5.048;2023-07-31T11:45:03;5.67;;;2.40;;
69534;SDS011;56754;51.568;5.048;2023-07-31T11:47:30;5.45;;;2.38;;
69534;SDS011;56754;51.568;5.048;2023-07-31T11:49:57;5.28;;;2.35;;
69534;SDS011;56754;51.568;5.048;2023-07-31T11:52:23;5.63;;;2.50;;
69534;SDS011;56754;51.568;5.048;2023-07-31T11:54:49;4.40;;;2.10;;
69534;SDS011;56754;51.568;5.048;2023-07-31T11:57:15;5.70;;;2.07;;
69534;SDS011;56754;51.568;5.048;2023-07-31T11:59:41;5.80;;;2.35;;
69534;SDS011;56754;51.568;5.048;2023-07-31T12:02:07;7.00;;;2.45;;
69534;SDS011;56754;51.568;5.048;2023-07-31T12:04:33;6.07;;;2.23;;
69534;SDS011;56754;51.568;5.048;2023-07-31T12:06:59;6.70;;;2.35;;
69534;SDS011;56754;51.568;5.048;2023-07-31T12:09:25;6.53;;;2.30;;
69534;SDS011;56754;51.568;5.048;2023-07-31T12:11:50;4.80;;;2.00;;
69534;SDS011;56754;51.568;5.048;2023-07-31T12:14:19;5.97;;;2.13;;
69534;SDS011;56754;51.568;5.048;2023-07-31T12:16:45;6.13;;;2.40;;
69534;SDS011;56754;51.568;5.048;2023-07-31T12:19:10;5.67;;;2.33;;
69534;SDS011;56754;51.568;5.048;2023-07-31T12:21:36;6.20;;;2.10;;
69534;SDS011;56754;51.568;5.048;2023-07-31T12:24:03;4.25;;;1.80;;
69534;SDS011;56754;51.568;5.048;2023-07-31T12:26:33;5.13;;;1.90;;
69534;SDS011;56754;51.568;5.048;2023-07-31T12:28:59;4.85;;;2.00;;
69534;SDS011;56754;51.568;5.048;2023-07-31T12:31:25;5.13;;;2.10;;
69534;SDS011;56754;51.568;5.048;2023-07-31T12:33:53;5.88;;;2.45;;
69534;SDS011;56754;51.568;5.048;2023-07-31T12:36:20;5.23;;;2.30;;
69534;SDS011;56754;51.568;5.048;2023-07-31T12:38:47;6.20;;;2.33;;
69534;SDS011;56754;51.568;5.048;2023-07-31T12:41:14;5.45;;;2.10;;
69534;SDS011;56754;51.568;5.048;2023-07-31T12:43:41;6.13;;;2.53;;
69534;SDS011;56754;51.568;5.048;2023-07-31T12:46:07;6.10;;;2.37;;
69534;SDS011;56754;51.568;5.048;2023-07-31T12:48:33;7.78;;;2.97;;
69534;SDS011;56754;51.568;5.048;2023-07-31T12:50:59;6.82;;;2.53;;
69534;SDS011;56754;51.568;5.048;2023-07-31T12:53:25;6.87;;;3.20;;
69534;SDS011;56754;51.568;5.048;2023-07-31T12:55:50;11.03;;;3.10;;
69534;SDS011;56754;51.568;5.048;2023-07-31T12:58:15;8.00;;;2.90;;
69534;SDS011;56754;51.568;5.048;2023-07-31T13:00:41;7.20;;;3.00;;
69534;SDS011;56754;51.568;5.048;2023-07-31T13:03:06;7.00;;;2.83;;
69534;SDS011;56754;51.568;5.048;2023-07-31T13:05:31;6.07;;;2.70;;
69534;SDS011;56754;51.568;5.048;2023-07-31T13:07:57;6.60;;;3.00;;
69534;SDS011;56754;51.568;5.048;2023-07-31T13:10:22;7.10;;;2.77;;
69534;SDS011;56754;51.568;5.048;2023-07-31T13:12:48;6.40;;;2.88;;
69534;SDS011;56754;51.568;5.048;2023-07-31T13:15:14;7.07;;;3.15;;
69534;SDS011;56754;51.568;5.048;2023-07-31T13:17:39;7.60;;;2.53;;
69534;SDS011;56754;51.568;5.048;2023-07-31T13:20:05;6.10;;;2.90;;
69534;SDS011;56754;51.568;5.048;2023-07-31T13:22:30;7.13;;;2.72;;
69534;SDS011;56754;51.568;5.048;2023-07-31T13:24:56;7.17;;;2.87;;
69534;SDS011;56754;51.568;5.048;2023-07-31T13:27:21;7.57;;;3.20;;
69534;SDS011;56754;51.568;5.048;2023-07-31T13:29:50;7.90;;;3.07;;
69534;SDS011;56754;51.568;5.048;2023-07-31T13:32:16;7.97;;;3.20;;
69534;SDS011;56754;51.568;5.048;2023-07-31T13:34:42;10.25;;;3.25;;
69534;SDS011;56754;51.568;5.048;2023-07-31T13:37:08;7.45;;;3.20;;
69534;SDS011;56754;51.568;5.048;2023-07-31T13:39:34;8.17;;;3.50;;
69534;SDS011;56754;51.568;5.048;2023-07-31T13:41:59;7.40;;;3.03;;
69534;SDS011;56754;51.568;5.048;2023-07-31T13:44:25;7.20;;;2.80;;
69534;SDS011;56754;51.568;5.048;2023-07-31T13:46:51;6.50;;;2.73;;
69534;SDS011;56754;51.568;5.048;2023-07-31T13:49:16;7.38;;;2.50;;
69534;SDS011;56754;51.568;5.048;2023-07-31T13:51:41;7.57;;;3.27;;
69534;SDS011;56754;51.568;5.048;2023-07-31T13:54:07;7.47;;;3.17;;
69534;SDS011;56754;51.568;5.048;2023-07-31T13:56:32;8.33;;;4.00;;
69534;SDS011;56754;51.568;5.048;2023-07-31T13:58:58;9.70;;;3.60;;
69534;SDS011;56754;51.568;5.048;2023-07-31T14:01:23;7.77;;;2.83;;
69534;SDS011;56754;51.568;5.048;2023-07-31T14:03:48;8.40;;;3.40;;
69534;SDS011;56754;51.568;5.048;2023-07-31T14:06:13;7.77;;;3.10;;
69534;SDS011;56754;51.568;5.048;2023-07-31T14:08:39;8.03;;;3.20;;
69534;SDS011;56754;51.568;5.048;2023-07-31T14:11:04;8.00;;;3.20;;
69534;SDS011;56754;51.568;5.048;2023-07-31T14:13:29;7.73;;;3.40;;
69534;SDS011;56754;51.568;5.048;2023-07-31T14:15:55;8.17;;;3.20;;
69534;SDS011;56754;51.568;5.048;2023-07-31T14:18:20;7.25;;;3.00;;
69534;SDS011;56754;51.568;5.048;2023-07-31T14:20:46;6.57;;;2.70;;
69534;SDS011;56754;51.568;5.048;2023-07-31T14:23:11;8.60;;;3.13;;
69534;SDS011;56754;51.568;5.048;2023-07-31T14:25:36;8.90;;;2.50;;
69534;SDS011;56754;51.568;5.048;2023-07-31T14:28:01;6.60;;;2.47;;
69534;SDS011;56754;51.568;5.048;2023-07-31T14:30:27;6.32;;;2.45;;
69534;SDS011;56754;51.568;5.048;2023-07-31T14:32:52;7.70;;;2.60;;
69534;SDS011;56754;51.568;5.048;2023-07-31T14:35:18;7.20;;;2.43;;
69534;SDS011;56754;51.568;5.048;2023-07-31T14:37:44;5.83;;;2.43;;
69534;SDS011;56754;51.568;5.048;2023-07-31T14:40:10;6.65;;;2.78;;
69534;SDS011;56754;51.568;5.048;2023-07-31T14:42:38;5.63;;;2.33;;
69534;SDS011;56754;51.568;5.048;2023-07-31T14:45:04;4.80;;;1.83;;
69534;SDS011;56754;51.568;5.048;2023-07-31T14:47:30;6.28;;;2.13;;
69534;SDS011;56754;51.568;5.048;2023-07-31T14:49:56;5.67;;;2.00;;
69534;SDS011;56754;51.568;5.048;2023-07-31T14:52:21;4.82;;;1.88;;
69534;SDS011;56754;51.568;5.048;2023-07-31T14:54:47;4.90;;;1.60;;
69534;SDS011;56754;51.568;5.048;2023-07-31T14:57:12;4.63;;;1.60;;
69534;SDS011;56754;51.568;5.048;2023-07-31T14:59:37;3.63;;;1.10;;